createdAt,value
2023-03-17T00:02:11.606Z,3.95
2023-03-17T00:04:40.141Z,4.13
2023-03-17T00:07:09.688Z,3.47
2023-03-17T00:09:38.350Z,3.88
2023-03-17T00:12:11.701Z,3.30
2023-03-17T00:14:41.767Z,3.30
2023-03-17T00:17:14.131Z,3.22
2023-03-17T00:19:44.667Z,3.35
2023-03-17T00:22:18.444Z,3.13
2023-03-17T00:24:46.894Z,3.05
2023-03-17T00:27:16.988Z,3.40
2023-03-17T00:29:47.045Z,2.85
2023-03-17T00:32:19.462Z,2.70
2023-03-17T00:34:48.493Z,2.50
2023-03-17T00:37:16.934Z,3.88
2023-03-17T00:39:45.376Z,3.55
2023-03-17T00:42:14.336Z,3.92
2023-03-17T00:44:42.786Z,3.80
2023-03-17T00:47:13.178Z,3.50
2023-03-17T00:49:41.712Z,3.63
2023-03-17T00:52:10.622Z,3.10
2023-03-17T00:54:39.072Z,3.40
2023-03-17T00:57:10.916Z,3.00
2023-03-17T00:59:42.380Z,2.92
2023-03-17T01:02:14.000Z,3.10
2023-03-17T01:04:49.981Z,3.53
2023-03-17T01:07:21.384Z,2.83
2023-03-17T01:09:49.936Z,3.53
2023-03-17T01:12:18.409Z,2.90
2023-03-17T01:14:47.090Z,2.72
2023-03-17T01:17:19.468Z,2.65
2023-03-17T01:19:48.925Z,2.30
2023-03-17T01:22:17.409Z,3.10
2023-03-17T01:24:47.816Z,2.10
2023-03-17T01:27:16.554Z,2.40
2023-03-17T01:29:44.989Z,2.28
2023-03-17T01:32:13.737Z,2.65
2023-03-17T01:34:43.811Z,2.83
2023-03-17T01:37:13.551Z,2.47
2023-03-17T01:39:43.111Z,2.45
2023-03-17T01:42:11.792Z,3.17
2023-03-17T01:44:59.809Z,2.50
2023-03-17T01:47:32.113Z,3.10
2023-03-17T01:50:07.619Z,3.03
2023-03-17T01:52:38.036Z,2.55
2023-03-17T01:55:10.595Z,2.75
2023-03-17T01:57:42.169Z,2.38
2023-03-17T02:00:16.418Z,2.75
2023-03-17T02:02:50.337Z,2.65
2023-03-17T02:05:24.343Z,3.17
2023-03-17T02:07:53.609Z,4.97
2023-03-17T02:10:25.258Z,4.82
2023-03-17T02:12:57.239Z,3.38
2023-03-17T02:15:36.573Z,3.58
2023-03-17T02:18:05.340Z,1.92
2023-03-17T02:21:42.134Z,2.30
2023-03-17T02:24:19.808Z,2.50
2023-03-17T02:26:49.710Z,2.17
2023-03-17T02:29:18.658Z,2.40
2023-03-17T02:31:47.458Z,2.22
2023-03-17T02:34:35.190Z,1.80
2023-03-17T02:37:05.751Z,2.20
2023-03-17T02:39:34.522Z,2.55
2023-03-17T02:42:03.253Z,1.98
2023-03-17T02:44:31.798Z,2.22
2023-03-17T02:47:01.043Z,2.38
2023-03-17T02:49:30.558Z,2.30
2023-03-17T02:51:59.438Z,2.00
2023-03-17T02:54:29.569Z,2.30
2023-03-17T02:56:58.045Z,2.38
2023-03-17T02:59:26.550Z,2.53
2023-03-17T03:01:56.216Z,2.00
2023-03-17T03:04:26.159Z,2.17
2023-03-17T03:06:54.956Z,2.20
2023-03-17T03:09:24.282Z,2.10
2023-03-17T03:11:54.383Z,2.20
2023-03-17T03:14:22.875Z,2.33
2023-03-17T03:16:52.313Z,2.42
2023-03-17T03:19:20.871Z,2.30
2023-03-17T03:21:49.544Z,2.10
2023-03-17T03:24:18.000Z,2.22
2023-03-17T03:26:46.506Z,2.10
2023-03-17T03:29:17.132Z,2.40
2023-03-17T03:31:45.551Z,2.60
2023-03-17T03:34:13.999Z,2.25
2023-03-17T03:36:42.944Z,2.10
2023-03-17T03:39:14.225Z,2.00
2023-03-17T03:41:43.447Z,2.10
2023-03-17T03:44:11.973Z,2.10
2023-03-17T03:46:42.033Z,2.20
2023-03-17T03:49:10.735Z,2.00
2023-03-17T03:51:39.456Z,1.80
2023-03-17T03:54:08.191Z,1.60
2023-03-17T03:56:36.888Z,1.75
2023-03-17T03:59:05.576Z,3.65
2023-03-17T04:01:34.338Z,12.85
2023-03-17T04:04:04.187Z,19.92
2023-03-17T04:06:32.640Z,15.88
2023-03-17T04:09:01.072Z,13.65
2023-03-17T04:11:29.564Z,7.97
2023-03-17T04:13:58.416Z,6.47
2023-03-17T04:16:27.332Z,2.70
2023-03-17T04:18:56.047Z,8.13
2023-03-17T04:21:26.614Z,7.13
2023-03-17T04:23:55.072Z,2.13
2023-03-17T04:26:25.076Z,2.70
2023-03-17T04:28:53.578Z,2.50
2023-03-17T04:31:22.263Z,2.67
2023-03-17T04:33:51.085Z,3.10
2023-03-17T04:36:27.168Z,3.67
2023-03-17T04:38:56.243Z,2.28
2023-03-17T04:41:24.699Z,2.00
2023-03-17T04:43:53.150Z,2.42
2023-03-17T04:46:21.566Z,6.30
2023-03-17T04:48:49.986Z,8.43
2023-03-17T04:51:18.497Z,14.63
2023-03-17T04:53:49.005Z,4.93
2023-03-17T04:56:17.831Z,2.92
2023-03-17T04:58:46.296Z,2.20
2023-03-17T05:01:14.914Z,1.80
2023-03-17T05:03:43.380Z,2.28
2023-03-17T05:06:12.026Z,3.50
2023-03-17T05:08:40.708Z,2.70
2023-03-17T05:11:11.718Z,3.10
2023-03-17T05:13:41.923Z,1.92
2023-03-17T05:16:11.490Z,2.00
2023-03-17T05:18:40.191Z,1.98
2023-03-17T05:21:09.109Z,1.95
2023-03-17T05:23:38.253Z,1.95
2023-03-17T05:26:06.995Z,1.80
2023-03-17T05:28:37.017Z,1.80
2023-03-17T05:31:05.703Z,1.85
2023-03-17T05:33:34.494Z,2.33
2023-03-17T05:36:03.615Z,2.33
2023-03-17T05:38:32.159Z,2.15
2023-03-17T05:41:00.658Z,2.03
2023-03-17T05:43:29.105Z,2.13
2023-03-17T05:45:59.190Z,2.10
2023-03-17T05:48:27.755Z,2.00
2023-03-17T05:50:56.258Z,1.85
2023-03-17T05:53:25.286Z,1.40
2023-03-17T05:55:53.750Z,1.58
2023-03-17T05:58:22.203Z,1.80
2023-03-17T06:00:51.141Z,1.90
2023-03-17T06:03:21.492Z,1.85
2023-03-17T06:05:50.297Z,1.83
2023-03-17T06:08:18.866Z,1.73
2023-03-17T06:10:48.648Z,2.00
2023-03-17T06:13:17.205Z,2.10
2023-03-17T06:15:46.534Z,1.88
2023-03-17T06:18:15.035Z,1.70
2023-03-17T06:20:44.861Z,1.60
2023-03-17T06:23:13.571Z,2.35
2023-03-17T06:25:42.012Z,1.75
2023-03-17T06:28:10.559Z,1.77
2023-03-17T06:30:40.769Z,1.90
2023-03-17T06:33:10.371Z,2.13
2023-03-17T06:35:39.247Z,1.80
2023-03-17T06:38:09.154Z,2.10
2023-03-17T06:40:38.299Z,1.70
2023-03-17T06:43:08.868Z,1.85
2023-03-17T06:45:37.531Z,1.90
2023-03-17T06:48:09.858Z,2.00
2023-03-17T06:50:38.460Z,1.58
2023-03-17T06:53:08.450Z,1.75
2023-03-17T06:55:37.049Z,1.90
2023-03-17T06:58:05.674Z,2.00
2023-03-17T07:00:34.192Z,2.20
2023-03-17T07:03:03.076Z,2.22
2023-03-17T07:05:31.941Z,2.83
2023-03-17T07:08:01.598Z,2.90
2023-03-17T07:10:31.554Z,2.40
2023-03-17T07:13:00.525Z,2.45
2023-03-17T07:15:32.498Z,2.53
2023-03-17T07:18:01.198Z,2.75
2023-03-17T07:20:30.328Z,2.47
2023-03-17T07:22:59.116Z,2.15
2023-03-17T07:25:27.626Z,1.80
2023-03-17T07:27:58.773Z,1.70
2023-03-17T07:30:28.026Z,1.92
2023-03-17T07:32:56.564Z,2.13
2023-03-17T07:35:25.602Z,2.25
2023-03-17T07:37:54.296Z,2.75
2023-03-17T07:40:24.176Z,2.63
2023-03-17T07:42:52.863Z,2.85
2023-03-17T07:45:22.686Z,2.67
2023-03-17T07:47:51.850Z,3.17
2023-03-17T07:50:20.580Z,2.38
2023-03-17T07:52:50.151Z,1.58
2023-03-17T07:55:18.714Z,1.58
2023-03-17T07:57:48.769Z,1.92
2023-03-17T08:00:18.927Z,1.60
2023-03-17T08:03:03.185Z,1.58
2023-03-17T08:05:37.663Z,1.50
2023-03-17T08:08:07.229Z,1.50
2023-03-17T08:10:36.217Z,1.20
2023-03-17T08:13:05.069Z,1.20
2023-03-17T08:15:34.116Z,0.85
2023-03-17T08:18:03.995Z,0.90
2023-03-17T08:20:33.254Z,1.00
2023-03-17T08:23:01.916Z,1.00
2023-03-17T08:25:32.217Z,1.90
2023-03-17T08:28:00.764Z,1.00
2023-03-17T08:30:32.378Z,0.93
2023-03-17T08:33:03.161Z,0.90
2023-03-17T08:35:32.214Z,0.57
2023-03-17T08:38:01.399Z,0.73
2023-03-17T08:40:30.815Z,0.80
2023-03-17T08:42:59.636Z,0.80
2023-03-17T08:45:28.227Z,0.98
2023-03-17T08:47:56.876Z,0.90
2023-03-17T08:50:31.347Z,1.08
2023-03-17T08:53:01.143Z,1.00
2023-03-17T08:55:30.446Z,1.10
2023-03-17T08:58:00.458Z,1.00
2023-03-17T09:00:29.241Z,1.00
2023-03-17T09:03:01.255Z,1.67
2023-03-17T09:05:31.987Z,1.10
2023-03-17T09:08:00.686Z,1.10
2023-03-17T09:10:32.257Z,0.98
2023-03-17T09:13:04.177Z,0.93
2023-03-17T09:15:34.717Z,1.20
2023-03-17T09:18:03.948Z,0.90
2023-03-17T09:20:35.028Z,1.05
2023-03-17T09:23:09.049Z,1.02
2023-03-17T09:25:41.401Z,1.02
2023-03-17T09:28:09.922Z,1.15
2023-03-17T09:30:38.419Z,1.30
2023-03-17T09:33:06.871Z,1.47
2023-03-17T09:35:36.710Z,1.30
2023-03-17T09:38:05.201Z,2.20
2023-03-17T09:40:38.713Z,2.22
2023-03-17T09:43:20.365Z,1.20
2023-03-17T09:45:48.859Z,1.13
2023-03-17T09:48:36.804Z,1.42
2023-03-17T09:51:10.295Z,1.20
2023-03-17T09:53:56.158Z,1.00
2023-03-17T09:56:25.682Z,1.20
2023-03-17T09:58:59.144Z,1.00
2023-03-17T10:01:28.076Z,1.52
2023-03-17T10:03:57.104Z,1.15
2023-03-17T10:06:40.572Z,1.00
2023-03-17T10:09:26.843Z,1.00
2023-03-17T10:12:05.399Z,1.10
2023-03-17T10:14:51.203Z,1.17
2023-03-17T10:17:23.314Z,1.00
2023-03-17T10:19:59.800Z,1.38
2023-03-17T10:22:38.198Z,1.30
2023-03-17T10:25:15.081Z,1.10
2023-03-17T10:27:46.341Z,1.10
2023-03-17T10:30:21.631Z,1.05
2023-03-17T10:32:52.537Z,1.10
2023-03-17T10:35:23.017Z,1.10
2023-03-17T10:38:04.413Z,0.80
2023-03-17T10:40:41.077Z,1.02
2023-03-17T10:43:21.765Z,1.27
2023-03-17T10:46:02.288Z,0.90
2023-03-17T10:48:32.427Z,0.90
2023-03-17T10:51:00.912Z,1.00
2023-03-17T10:53:43.005Z,0.80
2023-03-17T10:56:20.675Z,0.85
2023-03-17T10:58:51.629Z,0.90
2023-03-17T11:01:30.618Z,0.80
2023-03-17T11:04:02.569Z,0.80
2023-03-17T11:06:38.842Z,0.75
2023-03-17T11:09:12.536Z,0.85
2023-03-17T11:11:47.792Z,0.70
2023-03-17T11:14:18.722Z,1.00
2023-03-17T11:16:55.751Z,0.90
2023-03-17T11:19:38.688Z,0.90
2023-03-17T11:22:13.023Z,0.80
2023-03-17T11:24:55.803Z,0.80
2023-03-17T11:27:32.628Z,0.80
2023-03-17T11:30:20.108Z,0.70
2023-03-17T11:32:57.636Z,1.08
2023-03-17T11:35:41.513Z,1.00
2023-03-17T11:38:22.521Z,0.90
2023-03-17T11:41:15.363Z,1.00
2023-03-17T11:44:01.440Z,0.90
2023-03-17T11:46:32.321Z,0.80
2023-03-17T11:49:09.567Z,1.02
2023-03-17T11:51:50.817Z,0.85
2023-03-17T11:54:26.415Z,0.80
2023-03-17T11:56:59.997Z,0.70
2023-03-17T11:59:36.713Z,1.10
2023-03-17T12:02:19.108Z,0.82
2023-03-17T12:04:54.574Z,1.00
2023-03-17T12:07:27.398Z,1.15
2023-03-17T12:10:07.817Z,1.00
2023-03-17T12:12:42.780Z,0.80
2023-03-17T12:15:21.382Z,1.17
2023-03-17T12:17:57.695Z,0.90
2023-03-17T12:20:35.346Z,0.88
2023-03-17T12:23:14.333Z,0.90
2023-03-17T12:25:51.818Z,0.80
2023-03-17T12:28:27.278Z,0.70
2023-03-17T12:31:04.534Z,0.80
2023-03-17T12:33:43.009Z,0.70
2023-03-17T12:36:17.035Z,0.70
2023-03-17T12:38:49.440Z,0.85
2023-03-17T12:41:59.753Z,0.85
2023-03-17T12:44:58.318Z,0.60
2023-03-17T12:47:52.390Z,0.70
2023-03-17T12:50:51.771Z,0.67
2023-03-17T12:53:29.951Z,0.93
2023-03-17T12:56:08.959Z,0.90
2023-03-17T12:58:40.574Z,0.80
2023-03-17T13:01:20.969Z,0.80
2023-03-17T13:04:04.496Z,0.77
2023-03-17T13:06:40.218Z,1.00
2023-03-17T13:09:43.892Z,0.90
2023-03-17T13:13:01.655Z,0.77
2023-03-17T13:16:00.540Z,1.15
2023-03-17T13:18:50.026Z,1.10
2023-03-17T13:21:26.413Z,0.90
2023-03-17T13:24:24.349Z,1.00
2023-03-17T13:26:58.717Z,1.10
2023-03-17T13:29:45.544Z,1.10
2023-03-17T13:32:38.191Z,1.30
2023-03-17T13:35:39.603Z,1.00
2023-03-17T13:38:33.544Z,1.40
2023-03-17T13:41:21.318Z,1.17
2023-03-17T13:44:04.241Z,1.20
2023-03-17T13:46:42.805Z,1.20
2023-03-17T13:49:30.621Z,1.10
2023-03-17T13:52:09.580Z,1.30
2023-03-17T13:54:48.537Z,2.22
2023-03-17T13:57:29.143Z,1.75
2023-03-17T14:00:24.279Z,1.40
2023-03-17T14:03:02.716Z,1.20
2023-03-17T14:05:36.120Z,1.17
2023-03-17T14:08:15.586Z,1.30
2023-03-17T14:10:45.074Z,1.40
2023-03-17T14:13:21.965Z,1.30
2023-03-17T14:15:57.281Z,1.48
2023-03-17T14:18:34.128Z,1.50
2023-03-17T14:21:10.490Z,1.60
2023-03-17T14:23:41.360Z,1.40
2023-03-17T14:26:13.117Z,1.50
2023-03-17T14:28:41.720Z,1.40
2023-03-17T14:31:25.034Z,1.00
2023-03-17T14:33:57.469Z,1.10
2023-03-17T14:36:34.364Z,1.20
2023-03-17T14:39:04.564Z,1.00
2023-03-17T14:41:36.396Z,1.40
2023-03-17T14:44:04.911Z,1.30
2023-03-17T14:46:37.311Z,1.17
2023-03-17T14:49:16.714Z,1.15
2023-03-17T14:51:45.639Z,1.30
2023-03-17T14:54:19.824Z,1.10
2023-03-17T14:56:50.957Z,1.33
2023-03-17T14:59:25.414Z,1.70
2023-03-17T15:01:57.544Z,9.85
2023-03-17T15:04:28.649Z,2.00
2023-03-17T15:06:59.897Z,1.70
2023-03-17T15:09:36.544Z,1.23
2023-03-17T15:12:08.343Z,1.60
2023-03-17T15:14:40.611Z,1.52
2023-03-17T15:17:19.312Z,5.70
2023-03-17T15:19:50.718Z,3.63
2023-03-17T15:22:26.361Z,3.20
2023-03-17T15:25:04.078Z,6.05
2023-03-17T15:27:33.829Z,4.80
2023-03-17T15:30:03.196Z,5.30
2023-03-17T15:32:32.350Z,5.75
2023-03-17T15:35:00.864Z,6.05
2023-03-17T15:37:31.696Z,6.30
2023-03-17T15:40:03.350Z,5.53
2023-03-17T15:42:34.334Z,6.27
2023-03-17T15:45:03.785Z,5.20
2023-03-17T15:47:35.398Z,5.32
2023-03-17T15:50:16.243Z,5.80
2023-03-17T15:52:46.245Z,4.47
2023-03-17T15:55:24.700Z,4.73
2023-03-17T15:57:55.562Z,3.45
2023-03-17T16:00:26.997Z,3.10
2023-03-17T16:02:58.060Z,3.10
2023-03-17T16:05:28.901Z,2.83
2023-03-17T16:07:57.856Z,3.03
2023-03-17T16:10:30.820Z,3.00
2023-03-17T16:13:00.182Z,2.38
2023-03-17T16:15:32.639Z,2.50
2023-03-17T16:18:04.246Z,2.13
2023-03-17T16:20:39.518Z,2.27
2023-03-17T16:23:12.794Z,2.00
2023-03-17T16:25:42.983Z,2.00
2023-03-17T16:28:18.289Z,2.22
2023-03-17T16:30:48.662Z,2.30
2023-03-17T16:33:20.041Z,2.00
2023-03-17T16:35:50.001Z,1.95
2023-03-17T16:38:20.576Z,2.10
2023-03-17T16:40:53.789Z,1.73
2023-03-17T16:43:26.072Z,1.70
2023-03-17T16:45:57.034Z,1.57
2023-03-17T16:48:26.111Z,2.00
2023-03-17T16:50:55.123Z,2.35
2023-03-17T16:53:24.289Z,1.90
2023-03-17T16:55:55.738Z,2.20
2023-03-17T16:58:26.390Z,2.23
2023-03-17T17:00:59.157Z,2.30
2023-03-17T17:03:28.071Z,2.05
2023-03-17T17:05:56.587Z,2.03
2023-03-17T17:08:25.904Z,2.10
2023-03-17T17:10:57.353Z,2.27
2023-03-17T17:13:26.334Z,2.38
2023-03-17T17:15:55.818Z,2.40
2023-03-17T17:18:25.620Z,1.90
2023-03-17T17:20:55.373Z,2.63
2023-03-17T17:23:26.471Z,2.30
2023-03-17T17:25:56.862Z,2.00
2023-03-17T17:28:27.208Z,2.70
2023-03-17T17:30:55.970Z,2.17
2023-03-17T17:33:25.112Z,2.10
2023-03-17T17:35:54.529Z,2.47
2023-03-17T17:38:26.796Z,2.55
2023-03-17T17:40:59.053Z,2.08
2023-03-17T17:43:27.619Z,2.47
2023-03-17T17:45:56.503Z,2.45
2023-03-17T17:48:27.718Z,2.30
2023-03-17T17:50:57.889Z,2.63
2023-03-17T17:53:26.639Z,2.00
2023-03-17T17:55:57.717Z,2.35
2023-03-17T17:58:27.686Z,1.90
2023-03-17T18:00:57.633Z,2.20
2023-03-17T18:03:27.359Z,2.22
2023-03-17T18:05:57.824Z,2.47
2023-03-17T18:08:27.132Z,2.53
2023-03-17T18:10:57.546Z,2.50
2023-03-17T18:13:26.365Z,2.40
2023-03-17T18:15:54.815Z,2.40
2023-03-17T18:18:23.302Z,2.42
2023-03-17T18:20:52.620Z,3.00
2023-03-17T18:23:21.638Z,3.22
2023-03-17T18:25:50.459Z,2.50
2023-03-17T18:28:20.544Z,3.40
2023-03-17T18:30:49.041Z,3.40
2023-03-17T18:33:21.036Z,4.40
2023-03-17T18:35:52.262Z,4.70
2023-03-17T18:38:21.132Z,4.97
2023-03-17T18:40:49.697Z,4.75
2023-03-17T18:43:19.932Z,4.55
2023-03-17T18:45:48.657Z,9.27
2023-03-17T18:48:17.335Z,5.20
2023-03-17T18:50:46.385Z,4.40
2023-03-17T18:53:16.132Z,4.22
2023-03-17T18:55:44.687Z,6.63
2023-03-17T18:58:13.176Z,4.35
2023-03-17T19:00:43.134Z,3.28
2023-03-17T19:03:12.066Z,7.40
2023-03-17T19:05:41.057Z,3.20
2023-03-17T19:08:09.555Z,4.05
2023-03-17T19:10:38.215Z,3.35
2023-03-17T19:13:10.224Z,1.52
2023-03-17T19:15:38.932Z,1.53
2023-03-17T19:18:09.768Z,2.42
2023-03-17T19:20:38.213Z,1.50
2023-03-17T19:23:07.060Z,1.20
2023-03-17T19:25:36.848Z,9.60
2023-03-17T19:28:06.423Z,9.53
2023-03-17T19:30:35.763Z,10.10
2023-03-17T19:33:04.606Z,1.95
2023-03-17T19:35:34.462Z,4.90
2023-03-17T19:38:04.076Z,5.47
2023-03-17T19:40:32.966Z,5.57
2023-03-17T19:43:01.520Z,9.30
2023-03-17T19:45:30.039Z,4.03
2023-03-17T19:47:58.762Z,3.22
2023-03-17T19:50:27.491Z,4.10
2023-03-17T19:52:57.570Z,3.57
2023-03-17T19:55:27.065Z,4.22
2023-03-17T19:57:55.708Z,4.78
2023-03-17T20:00:24.731Z,3.30
2023-03-17T20:02:53.254Z,2.90
2023-03-17T20:05:22.130Z,3.60
2023-03-17T20:07:50.614Z,3.08
2023-03-17T20:10:20.972Z,3.05
2023-03-17T20:12:49.450Z,3.05
2023-03-17T20:15:18.464Z,2.33
2023-03-17T20:17:47.028Z,2.70
2023-03-17T20:20:16.148Z,2.47
2023-03-17T20:22:45.254Z,4.20
2023-03-17T20:25:13.942Z,8.00
2023-03-17T20:27:43.840Z,6.38
2023-03-17T20:30:13.579Z,5.63
2023-03-17T20:32:42.076Z,3.20
2023-03-17T20:35:11.269Z,3.85
2023-03-17T20:37:40.056Z,4.82
2023-03-17T20:40:10.734Z,5.03
2023-03-17T20:42:39.456Z,4.40
2023-03-17T20:45:10.361Z,6.30
2023-03-17T20:47:38.820Z,6.07
2023-03-17T20:50:09.984Z,6.97
2023-03-17T20:52:39.770Z,9.73
2023-03-17T20:55:13.939Z,8.17
2023-03-17T20:57:45.592Z,2.95
2023-03-17T21:00:20.105Z,2.67
2023-03-17T21:02:50.645Z,1.13
2023-03-17T21:05:23.146Z,0.90
2023-03-17T21:07:52.754Z,0.90
2023-03-17T21:10:21.713Z,1.95
2023-03-17T21:12:50.456Z,1.00
2023-03-17T21:15:22.895Z,1.17
2023-03-17T21:17:51.419Z,0.90
2023-03-17T21:20:21.480Z,0.87
2023-03-17T21:22:50.040Z,0.77
2023-03-17T21:25:19.286Z,1.08
2023-03-17T21:27:47.790Z,0.95
2023-03-17T21:30:16.754Z,1.00
2023-03-17T21:32:46.570Z,0.93
2023-03-17T21:35:16.534Z,0.88
2023-03-17T21:37:45.050Z,0.70
2023-03-17T21:40:16.009Z,0.90
2023-03-17T21:42:44.538Z,0.90
2023-03-17T21:45:13.871Z,0.60
2023-03-17T21:47:42.601Z,0.65
2023-03-17T21:50:14.216Z,0.80
2023-03-17T21:52:43.819Z,0.90
2023-03-17T21:55:12.412Z,0.90
2023-03-17T21:57:40.877Z,0.83
2023-03-17T22:00:12.381Z,0.90
2023-03-17T22:02:41.838Z,1.17
2023-03-17T22:05:12.105Z,0.80
2023-03-17T22:10:30.074Z,1.00
2023-03-17T22:12:58.606Z,1.00
2023-03-17T22:15:27.036Z,1.20
2023-03-17T22:17:56.900Z,0.98
2023-03-17T22:20:26.732Z,0.93
2023-03-17T22:22:55.177Z,1.00
2023-03-17T22:25:24.058Z,1.00
2023-03-17T22:27:53.735Z,1.10
2023-03-17T22:30:22.495Z,1.20
2023-03-17T22:32:51.155Z,1.05
2023-03-17T22:35:20.948Z,1.20
2023-03-17T22:37:51.046Z,0.90
2023-03-17T22:40:19.784Z,1.10
2023-03-17T22:42:48.262Z,1.00
2023-03-17T22:45:17.942Z,1.10
2023-03-17T22:47:46.389Z,1.17
2023-03-17T22:50:15.049Z,0.90
2023-03-17T22:52:43.572Z,1.08
2023-03-17T22:55:13.745Z,1.00
2023-03-17T22:57:42.322Z,1.30
2023-03-17T23:00:17.269Z,1.30
2023-03-17T23:02:46.375Z,1.10
2023-03-17T23:05:16.153Z,1.10
2023-03-17T23:07:50.628Z,1.25
2023-03-17T23:10:24.696Z,0.88
2023-03-17T23:12:53.910Z,1.17
2023-03-17T23:15:23.136Z,1.15
2023-03-17T23:17:51.995Z,1.17
2023-03-17T23:20:20.709Z,1.35
2023-03-17T23:22:49.597Z,1.20
2023-03-17T23:25:18.756Z,1.90
2023-03-17T23:27:49.397Z,1.10
2023-03-17T23:30:18.862Z,1.10
2023-03-17T23:32:48.268Z,1.20
2023-03-17T23:35:17.536Z,1.40
2023-03-17T23:37:46.042Z,1.20
2023-03-17T23:40:17.311Z,1.33
2023-03-17T23:42:49.240Z,1.10
2023-03-17T23:45:18.715Z,1.20
2023-03-17T23:47:48.739Z,1.33
2023-03-17T23:50:17.746Z,1.20
2023-03-17T23:52:47.348Z,1.10
2023-03-17T23:55:17.168Z,1.52
2023-03-17T23:57:47.356Z,1.23
